createdAt,value
2018-05-25T00:01:06.750Z,19.02
2018-05-25T00:03:34.221Z,17.37
2018-05-25T00:06:01.703Z,18.25
2018-05-25T00:08:29.163Z,18.27
2018-05-25T00:10:56.621Z,19.35
2018-05-25T00:13:24.087Z,18.52
2018-05-25T00:15:51.539Z,18.17
2018-05-25T00:18:19.053Z,17.75
2018-05-25T00:20:46.541Z,18.33
2018-05-25T00:23:13.998Z,17.80
2018-05-25T00:25:41.481Z,18.73
2018-05-25T00:28:08.947Z,18.00
2018-05-25T00:30:37.178Z,18.75
2018-05-25T00:33:04.647Z,20.07
2018-05-25T00:35:32.131Z,18.55
2018-05-25T00:37:59.604Z,19.37
2018-05-25T00:40:27.072Z,19.23
2018-05-25T00:42:54.542Z,18.98
2018-05-25T00:45:22.014Z,18.58
2018-05-25T00:47:49.486Z,18.75
2018-05-25T00:50:17.816Z,19.30
2018-05-25T00:52:45.275Z,19.02
2018-05-25T00:55:24.734Z,18.70
2018-05-25T00:57:52.201Z,20.40
2018-05-25T01:00:19.675Z,18.90
2018-05-25T01:02:47.122Z,19.70
2018-05-25T01:05:14.584Z,19.23
2018-05-25T01:07:42.041Z,18.62
2018-05-25T01:10:09.515Z,19.77
2018-05-25T01:12:36.966Z,21.95
2018-05-25T01:15:04.430Z,20.50
2018-05-25T01:17:31.902Z,21.48
2018-05-25T01:19:59.352Z,21.02
2018-05-25T01:22:27.577Z,20.77
2018-05-25T01:24:55.059Z,22.83
2018-05-25T01:27:22.528Z,21.12
2018-05-25T01:29:49.979Z,21.40
2018-05-25T01:32:17.446Z,21.40
2018-05-25T01:34:44.900Z,23.05
2018-05-25T01:37:12.352Z,22.40
2018-05-25T01:39:40.577Z,22.20
2018-05-25T01:42:08.031Z,23.40
2018-05-25T01:44:35.495Z,23.35
2018-05-25T01:47:03.735Z,23.90
2018-05-25T01:49:31.189Z,22.80
2018-05-25T01:51:58.667Z,23.73
2018-05-25T01:54:27.223Z,22.37
2018-05-25T01:56:55.450Z,23.70
2018-05-25T01:59:22.914Z,23.62
2018-05-25T02:01:50.369Z,23.00
2018-05-25T02:04:18.685Z,23.48
2018-05-25T02:06:46.148Z,24.02
2018-05-25T02:09:13.620Z,23.90
2018-05-25T02:11:41.092Z,23.52
2018-05-25T02:14:08.558Z,24.20
2018-05-25T02:16:36.026Z,24.60
2018-05-25T02:19:03.495Z,24.65
2018-05-25T02:21:30.958Z,23.45
2018-05-25T02:23:58.426Z,24.40
2018-05-25T02:26:25.880Z,24.90
2018-05-25T02:28:53.357Z,25.73
2018-05-25T02:31:20.804Z,25.25
2018-05-25T02:33:48.257Z,25.80
2018-05-25T02:36:16.536Z,24.70
2018-05-25T02:38:44.071Z,25.50
2018-05-25T02:41:12.267Z,25.58
2018-05-25T02:43:39.831Z,25.37
2018-05-25T02:46:07.310Z,25.43
2018-05-25T02:48:34.770Z,26.25
2018-05-25T02:51:02.259Z,27.60
2018-05-25T02:53:29.724Z,25.92
2018-05-25T02:55:57.188Z,26.35
2018-05-25T02:58:24.651Z,26.00
2018-05-25T03:00:52.128Z,26.70
2018-05-25T03:03:19.598Z,25.67
2018-05-25T03:05:47.843Z,26.95
2018-05-25T03:08:15.314Z,26.50
2018-05-25T03:10:42.786Z,26.92
2018-05-25T03:13:10.254Z,27.00
2018-05-25T03:15:37.710Z,26.98
2018-05-25T03:18:05.944Z,27.30
2018-05-25T03:20:34.168Z,27.63
2018-05-25T03:23:02.400Z,28.12
2018-05-25T03:25:29.865Z,27.98
2018-05-25T03:27:57.316Z,25.70
2018-05-25T03:30:24.792Z,26.90
2018-05-25T03:32:52.264Z,27.13
2018-05-25T03:35:19.730Z,25.80
2018-05-25T03:37:47.226Z,26.58
2018-05-25T03:40:14.689Z,26.60
2018-05-25T03:42:42.154Z,25.40
2018-05-25T03:45:09.615Z,27.20
2018-05-25T03:47:37.095Z,26.92
2018-05-25T03:50:04.536Z,26.48
2018-05-25T03:52:32.777Z,25.17
2018-05-25T03:55:00.237Z,26.12
2018-05-25T03:57:27.685Z,24.73
2018-05-25T04:00:07.066Z,24.30
2018-05-25T04:02:35.288Z,24.83
2018-05-25T04:05:03.532Z,24.03
2018-05-25T04:07:30.983Z,24.05
2018-05-25T04:09:58.441Z,24.60
2018-05-25T04:12:25.903Z,24.48
2018-05-25T04:14:54.126Z,23.90
2018-05-25T04:17:21.594Z,24.40
2018-05-25T04:19:49.058Z,23.67
2018-05-25T04:22:16.562Z,23.17
2018-05-25T04:24:44.030Z,23.30
2018-05-25T04:27:11.507Z,22.33
2018-05-25T04:29:38.983Z,22.23
2018-05-25T04:32:06.440Z,23.20
2018-05-25T04:34:33.892Z,22.00
2018-05-25T04:37:01.362Z,23.10
2018-05-25T04:39:28.831Z,22.30
2018-05-25T04:41:56.292Z,23.00
2018-05-25T04:44:24.136Z,22.67
2018-05-25T04:46:52.351Z,22.87
2018-05-25T04:49:19.826Z,21.00
2018-05-25T04:51:47.275Z,22.27
2018-05-25T04:54:14.747Z,21.52
2018-05-25T04:56:42.226Z,21.15
2018-05-25T04:59:09.700Z,21.73
2018-05-25T05:01:37.178Z,21.60
2018-05-25T05:04:04.664Z,20.90
2018-05-25T05:06:32.125Z,21.50
2018-05-25T05:08:59.603Z,20.20
2018-05-25T05:11:27.071Z,20.92
2018-05-25T05:13:54.524Z,21.27
2018-05-25T05:16:22.002Z,20.50
2018-05-25T05:18:50.219Z,21.57
2018-05-25T05:21:17.688Z,21.65
2018-05-25T05:23:45.144Z,20.77
2018-05-25T05:26:12.615Z,20.50
2018-05-25T05:28:40.086Z,21.75
2018-05-25T05:31:07.541Z,21.67
2018-05-25T05:33:35.032Z,20.23
2018-05-25T05:36:02.478Z,20.37
2018-05-25T05:38:29.924Z,20.30
2018-05-25T05:40:57.474Z,20.15
2018-05-25T05:43:24.868Z,20.65
2018-05-25T05:45:52.368Z,20.52
2018-05-25T05:48:19.816Z,19.92
2018-05-25T05:50:47.283Z,20.62
2018-05-25T05:53:14.776Z,20.55
2018-05-25T05:55:42.221Z,21.77
2018-05-25T05:58:09.696Z,20.65
2018-05-25T06:00:37.139Z,19.35
2018-05-25T06:03:04.587Z,19.10
2018-05-25T06:05:32.812Z,19.42
2018-05-25T06:08:00.288Z,19.45
2018-05-25T06:10:27.752Z,19.02
2018-05-25T06:12:55.239Z,19.55
2018-05-25T06:15:22.688Z,19.55
2018-05-25T06:17:50.157Z,18.80
2018-05-25T06:20:17.644Z,18.25
2018-05-25T06:22:45.115Z,17.60
2018-05-25T06:25:12.577Z,18.90
2018-05-25T06:27:40.804Z,18.70
2018-05-25T06:30:09.043Z,18.60
2018-05-25T06:32:36.518Z,17.40
2018-05-25T06:35:03.968Z,17.80
2018-05-25T06:37:31.430Z,17.40
2018-05-25T06:39:58.906Z,18.52
2018-05-25T06:42:26.373Z,17.55
2018-05-25T06:44:53.851Z,17.48
2018-05-25T06:47:21.321Z,18.45
2018-05-25T06:49:48.782Z,18.23
2018-05-25T06:52:16.284Z,18.15
2018-05-25T06:54:43.736Z,17.87
2018-05-25T06:57:11.241Z,16.83
2018-05-25T06:59:38.662Z,16.40
2018-05-25T07:02:06.117Z,16.25
2018-05-25T07:04:33.588Z,16.20
2018-05-25T07:07:01.040Z,16.30
2018-05-25T07:09:29.256Z,16.20
2018-05-25T07:11:56.716Z,16.00
2018-05-25T07:14:24.169Z,15.65
2018-05-25T07:16:52.402Z,15.30
2018-05-25T07:19:19.853Z,15.50
2018-05-25T07:21:47.328Z,15.50
2018-05-25T07:24:14.803Z,15.48
2018-05-25T07:26:42.269Z,17.15
2018-05-25T07:29:09.729Z,15.25
2018-05-25T07:31:37.188Z,15.75
2018-05-25T07:34:04.647Z,16.05
2018-05-25T07:36:32.882Z,16.55
2018-05-25T07:39:00.360Z,16.17
2018-05-25T07:41:27.822Z,16.10
2018-05-25T07:43:55.269Z,16.10
2018-05-25T07:46:22.748Z,15.50
2018-05-25T07:48:50.212Z,14.70
2018-05-25T07:51:17.720Z,14.80
2018-05-25T07:53:45.211Z,15.68
2018-05-25T07:56:13.442Z,16.10
2018-05-25T07:58:40.900Z,15.00
2018-05-25T08:01:08.354Z,15.87
2018-05-25T08:03:36.599Z,16.52
2018-05-25T08:06:04.069Z,16.10
2018-05-25T08:08:31.538Z,16.37
2018-05-25T08:10:59.773Z,16.23
2018-05-25T08:13:27.263Z,16.85
2018-05-25T08:15:54.817Z,16.23
2018-05-25T08:18:23.051Z,16.90
2018-05-25T08:20:50.495Z,16.77
2018-05-25T08:23:17.982Z,17.33
2018-05-25T08:25:45.446Z,15.85
2018-05-25T08:28:12.926Z,15.68
2018-05-25T08:30:40.386Z,15.00
2018-05-25T08:33:07.846Z,15.95
2018-05-25T08:35:35.322Z,16.50
2018-05-25T08:38:02.775Z,16.77
2018-05-25T08:40:30.241Z,15.95
2018-05-25T08:42:57.725Z,16.58
2018-05-25T08:45:25.198Z,16.98
2018-05-25T08:47:52.667Z,17.35
2018-05-25T08:50:20.130Z,16.65
2018-05-25T08:52:47.646Z,16.87
2018-05-25T08:55:15.152Z,16.98
2018-05-25T08:57:43.343Z,17.42
2018-05-25T09:00:10.807Z,16.70
2018-05-25T09:02:38.271Z,16.67
2018-05-25T09:05:05.744Z,16.23
2018-05-25T09:07:33.210Z,16.65
2018-05-25T09:10:00.690Z,15.95
2018-05-25T09:12:28.213Z,16.40
2018-05-25T09:14:55.607Z,16.20
2018-05-25T09:17:23.837Z,16.80
2018-05-25T09:19:51.315Z,16.40
2018-05-25T09:22:18.773Z,16.80
2018-05-25T09:24:46.262Z,16.08
2018-05-25T09:27:13.735Z,15.80
2018-05-25T09:29:41.211Z,16.08
2018-05-25T09:32:08.661Z,15.25
2018-05-25T09:34:36.157Z,14.95
2018-05-25T09:37:03.604Z,15.75
2018-05-25T09:39:31.835Z,16.12
2018-05-25T09:42:00.075Z,16.25
2018-05-25T09:44:27.532Z,16.33
2018-05-25T09:46:55.022Z,14.30
2018-05-25T09:49:22.487Z,15.45
2018-05-25T09:51:49.936Z,14.73
2018-05-25T09:54:17.426Z,14.05
2018-05-25T09:56:56.916Z,13.00
2018-05-25T09:59:24.376Z,13.85
2018-05-25T10:01:51.860Z,13.95
2018-05-25T10:04:19.335Z,14.75
2018-05-25T10:06:46.781Z,12.77
2018-05-25T10:09:14.240Z,13.50
2018-05-25T10:11:41.726Z,11.68
2018-05-25T10:14:09.187Z,11.35
2018-05-25T10:16:36.641Z,9.27
2018-05-25T10:19:04.864Z,10.90
2018-05-25T10:21:32.333Z,13.13
2018-05-25T10:23:59.802Z,11.40
2018-05-25T10:26:27.266Z,12.02
2018-05-25T10:28:54.735Z,12.60
2018-05-25T10:31:22.203Z,13.15
2018-05-25T10:33:49.674Z,11.60
2018-05-25T10:36:17.167Z,12.15
2018-05-25T10:38:45.392Z,10.18
2018-05-25T10:41:12.904Z,10.37
2018-05-25T10:43:40.357Z,11.00
2018-05-25T10:46:07.799Z,10.45
2018-05-25T10:48:35.259Z,11.33
2018-05-25T10:51:02.724Z,10.77
2018-05-25T10:53:30.175Z,11.45
2018-05-25T10:55:57.663Z,10.90
2018-05-25T10:58:25.848Z,10.82
2018-05-25T11:00:53.342Z,10.93
2018-05-25T11:03:20.794Z,9.80
2018-05-25T11:05:48.244Z,9.90
2018-05-25T11:08:15.716Z,10.70
2018-05-25T11:10:43.192Z,10.45
2018-05-25T11:13:10.647Z,10.75
2018-05-25T11:15:38.878Z,9.50
2018-05-25T11:18:06.332Z,10.27
2018-05-25T11:20:33.788Z,9.77
2018-05-25T11:23:01.241Z,9.43
2018-05-25T11:25:29.479Z,9.35
2018-05-25T11:27:56.946Z,9.02
2018-05-25T11:30:24.396Z,8.85
2018-05-25T11:32:51.862Z,10.17
2018-05-25T11:35:19.347Z,8.35
2018-05-25T11:37:46.804Z,8.10
2018-05-25T11:40:14.250Z,6.50
2018-05-25T11:42:42.542Z,8.23
2018-05-25T11:45:10.195Z,7.72
2018-05-25T11:47:37.658Z,8.75
2018-05-25T11:50:05.116Z,8.50
2018-05-25T11:52:32.571Z,8.00
2018-05-25T11:55:00.032Z,7.95
2018-05-25T11:57:27.482Z,7.70
2018-05-25T11:59:54.947Z,7.78
2018-05-25T12:02:22.392Z,7.15
2018-05-25T12:04:50.596Z,7.30
2018-05-25T12:07:18.057Z,7.03
2018-05-25T12:09:46.273Z,6.47
2018-05-25T12:12:13.721Z,6.82
2018-05-25T12:14:41.192Z,6.15
2018-05-25T12:17:08.646Z,6.65
2018-05-25T12:19:36.861Z,6.40
2018-05-25T12:22:04.319Z,8.33
2018-05-25T12:24:31.776Z,7.82
2018-05-25T12:27:00.004Z,6.80
2018-05-25T12:29:27.464Z,7.15
2018-05-25T12:31:54.912Z,6.40
2018-05-25T12:34:22.360Z,6.00
2018-05-25T12:36:49.846Z,5.80
2018-05-25T12:39:18.075Z,5.30
2018-05-25T12:41:45.508Z,5.80
2018-05-25T12:44:12.975Z,6.00
2018-05-25T12:46:40.430Z,6.22
2018-05-25T12:49:08.662Z,5.85
2018-05-25T12:51:36.132Z,5.87
2018-05-25T12:54:03.613Z,5.70
2018-05-25T12:56:31.079Z,5.85
2018-05-25T12:58:58.527Z,6.20
2018-05-25T13:01:25.994Z,6.25
2018-05-25T13:03:53.448Z,5.90
2018-05-25T13:06:21.683Z,6.60
2018-05-25T13:08:49.147Z,5.95
2018-05-25T13:11:16.610Z,6.00
2018-05-25T13:13:44.911Z,5.50
2018-05-25T13:16:12.378Z,5.15
2018-05-25T13:18:39.832Z,5.12
2018-05-25T13:21:07.297Z,5.55
2018-05-25T13:23:34.748Z,5.20
2018-05-25T13:26:02.207Z,4.70
2018-05-25T13:28:30.428Z,4.90
2018-05-25T13:30:57.877Z,5.10
2018-05-25T13:33:25.337Z,5.15
2018-05-25T13:35:53.564Z,4.90
2018-05-25T13:38:21.023Z,5.07
2018-05-25T13:40:48.459Z,4.60
2018-05-25T13:43:16.696Z,4.70
2018-05-25T13:45:44.146Z,4.20
2018-05-25T13:48:11.592Z,4.40
2018-05-25T13:50:39.055Z,3.80
2018-05-25T13:53:07.283Z,4.00
2018-05-25T13:55:34.738Z,4.00
2018-05-25T13:58:02.194Z,3.60
2018-05-25T14:00:29.654Z,4.50
2018-05-25T14:02:57.117Z,4.30
2018-05-25T14:05:25.320Z,4.25
2018-05-25T14:07:52.782Z,4.33
2018-05-25T14:10:20.262Z,4.45
2018-05-25T14:12:47.727Z,4.60
2018-05-25T14:15:15.196Z,4.80
2018-05-25T14:17:42.671Z,4.62
2018-05-25T14:20:10.138Z,4.97
2018-05-25T14:22:37.582Z,5.57
2018-05-25T14:25:05.818Z,5.00
2018-05-25T14:27:33.283Z,4.90
2018-05-25T14:30:00.743Z,4.80
2018-05-25T14:32:28.194Z,6.00
2018-05-25T14:34:55.641Z,6.90
2018-05-25T14:37:23.851Z,5.80
2018-05-25T14:39:51.312Z,5.28
2018-05-25T14:42:19.530Z,4.72
2018-05-25T14:44:47.012Z,5.20
2018-05-25T14:47:14.497Z,4.70
2018-05-25T14:49:41.960Z,4.95
2018-05-25T14:52:09.423Z,4.40
2018-05-25T14:54:37.688Z,4.10
2018-05-25T14:57:05.145Z,3.90
2018-05-25T14:59:32.613Z,4.30
2018-05-25T15:02:00.074Z,5.40
2018-05-25T15:04:28.310Z,6.30
2018-05-25T15:06:55.799Z,5.90
2018-05-25T15:09:23.256Z,5.70
2018-05-25T15:11:50.718Z,5.70
2018-05-25T15:14:18.160Z,5.72
2018-05-25T15:16:45.612Z,7.62
2018-05-25T15:19:13.092Z,5.82
2018-05-25T15:21:40.563Z,5.20
2018-05-25T15:24:08.030Z,5.62
2018-05-25T15:26:35.487Z,5.20
2018-05-25T15:29:03.716Z,5.50
2018-05-25T15:31:31.182Z,5.40
2018-05-25T15:33:58.668Z,5.12
2018-05-25T15:36:26.126Z,5.80
2018-05-25T15:38:53.609Z,5.47
2018-05-25T15:41:21.074Z,5.07
2018-05-25T15:43:48.548Z,5.90
2018-05-25T15:46:16.000Z,5.70
2018-05-25T15:48:44.211Z,5.80
2018-05-25T15:51:11.669Z,5.50
2018-05-25T15:53:39.117Z,5.97
2018-05-25T15:56:06.576Z,5.78
2018-05-25T15:58:34.039Z,5.82
2018-05-25T16:01:01.484Z,5.35
2018-05-25T16:03:29.695Z,5.85
2018-05-25T16:05:57.170Z,5.57
2018-05-25T16:08:24.624Z,5.55
2018-05-25T16:10:52.840Z,5.05
2018-05-25T16:13:20.289Z,5.80
2018-05-25T16:15:47.744Z,5.80
2018-05-25T16:18:15.999Z,5.10
2018-05-25T16:20:43.447Z,5.30
2018-05-25T16:23:10.887Z,5.40
2018-05-25T16:25:38.377Z,5.60
2018-05-25T16:28:05.812Z,5.53
2018-05-25T16:30:34.020Z,5.55
2018-05-25T16:33:01.522Z,5.60
2018-05-25T16:35:29.039Z,5.30
2018-05-25T16:37:57.251Z,5.32
2018-05-25T16:40:24.716Z,6.20
2018-05-25T16:42:52.178Z,6.12
2018-05-25T16:45:20.399Z,5.40
2018-05-25T16:47:47.868Z,5.37
2018-05-25T16:50:15.369Z,5.60
2018-05-25T16:52:42.817Z,5.53
2018-05-25T16:55:10.271Z,5.30
2018-05-25T16:57:37.725Z,5.32
2018-05-25T17:00:05.214Z,5.50
2018-05-25T17:02:32.639Z,5.90
2018-05-25T17:05:00.877Z,5.60
2018-05-25T17:07:28.350Z,5.93
2018-05-25T17:09:55.817Z,5.80
2018-05-25T17:12:23.261Z,6.07
2018-05-25T17:14:50.730Z,5.50
2018-05-25T17:17:18.190Z,5.17
2018-05-25T17:19:46.426Z,5.28
2018-05-25T17:22:13.892Z,5.78
2018-05-25T17:24:42.138Z,5.70
2018-05-25T17:27:10.355Z,5.50
2018-05-25T17:29:37.843Z,5.80
2018-05-25T17:32:05.294Z,5.62
2018-05-25T17:34:32.770Z,6.55
2018-05-25T17:37:00.209Z,6.30
2018-05-25T17:39:27.704Z,6.05
2018-05-25T17:41:55.163Z,5.80
2018-05-25T17:44:22.630Z,6.12
2018-05-25T17:46:50.087Z,6.72
2018-05-25T17:49:17.626Z,7.20
2018-05-25T17:51:45.097Z,6.25
2018-05-25T17:54:12.562Z,5.80
2018-05-25T17:56:40.012Z,6.20
2018-05-25T17:59:07.495Z,6.53
2018-05-25T18:01:34.957Z,6.10
2018-05-25T18:04:02.401Z,6.40
2018-05-25T18:06:29.853Z,5.70
2018-05-25T18:08:57.288Z,7.00
2018-05-25T18:11:24.761Z,7.00
2018-05-25T18:13:52.218Z,7.80
2018-05-25T18:16:19.661Z,6.75
2018-05-25T18:18:47.101Z,6.20
2018-05-25T18:21:14.559Z,7.75
2018-05-25T18:23:42.779Z,6.70
2018-05-25T18:26:10.259Z,7.12
2018-05-25T18:28:37.722Z,6.75
2018-05-25T18:31:05.194Z,7.22
2018-05-25T18:33:32.637Z,6.90
2018-05-25T18:36:00.095Z,6.53
2018-05-25T18:38:28.323Z,6.30
2018-05-25T18:40:55.786Z,6.35
2018-05-25T18:43:23.252Z,6.40
2018-05-25T18:45:50.700Z,6.78
2018-05-25T18:48:18.168Z,6.22
2018-05-25T18:50:45.645Z,6.20
2018-05-25T18:53:13.092Z,6.55
2018-05-25T18:55:41.308Z,6.25
2018-05-25T18:58:08.769Z,6.00
2018-05-25T19:00:36.207Z,6.35
2018-05-25T19:03:03.652Z,6.60
2018-05-25T19:05:31.116Z,6.65
2018-05-25T19:07:59.328Z,6.47
2018-05-25T19:10:26.790Z,6.80
2018-05-25T19:12:54.270Z,6.10
2018-05-25T19:15:21.717Z,6.30
2018-05-25T19:17:49.173Z,6.90
2018-05-25T19:20:16.622Z,6.70
2018-05-25T19:22:44.083Z,6.85
2018-05-25T19:25:11.551Z,6.75
2018-05-25T19:27:38.997Z,6.78
2018-05-25T19:30:07.235Z,7.05
2018-05-25T19:32:34.679Z,8.15
2018-05-25T19:35:02.159Z,7.43
2018-05-25T19:37:29.605Z,7.90
2018-05-25T19:39:57.814Z,8.00
2018-05-25T19:42:25.282Z,8.13
2018-05-25T19:44:52.758Z,7.93
2018-05-25T19:47:20.207Z,8.10
2018-05-25T19:49:47.691Z,7.90
2018-05-25T19:52:15.141Z,7.53
2018-05-25T19:54:43.370Z,7.82
2018-05-25T19:57:10.829Z,7.70
2018-05-25T19:59:38.300Z,8.52
2018-05-25T20:02:05.752Z,8.63
2018-05-25T20:04:34.020Z,8.88
2018-05-25T20:07:02.242Z,8.30
2018-05-25T20:09:29.699Z,8.80
2018-05-25T20:11:57.172Z,8.10
2018-05-25T20:14:24.612Z,8.40
2018-05-25T20:16:52.835Z,10.37
2018-05-25T20:19:20.299Z,8.85
2018-05-25T20:21:47.752Z,8.95
2018-05-25T20:24:15.217Z,8.68
2018-05-25T20:26:42.676Z,8.75
2018-05-25T20:29:10.897Z,9.20
2018-05-25T20:31:38.367Z,10.45
2018-05-25T20:34:05.820Z,10.70
2018-05-25T20:36:33.272Z,9.85
2018-05-25T20:39:01.579Z,9.70
2018-05-25T20:41:29.032Z,9.02
2018-05-25T20:43:57.252Z,9.77
2018-05-25T20:46:24.730Z,12.55
2018-05-25T20:48:52.242Z,13.68
2018-05-25T20:51:19.701Z,12.73
2018-05-25T20:53:47.160Z,15.70
2018-05-25T20:56:14.620Z,13.00
2018-05-25T20:58:42.079Z,11.70
2018-05-25T21:01:09.529Z,19.90
2018-05-25T21:03:37.016Z,20.63
2018-05-25T21:06:04.463Z,12.00
2018-05-25T21:08:31.910Z,14.47
2018-05-25T21:11:00.147Z,14.77
2018-05-25T21:13:27.597Z,13.70
2018-05-25T21:15:55.061Z,13.50
2018-05-25T21:18:22.532Z,13.07
2018-05-25T21:20:49.989Z,12.40
2018-05-25T21:23:17.469Z,12.13
2018-05-25T21:25:44.929Z,11.63
2018-05-25T21:28:12.391Z,12.20
2018-05-25T21:30:39.856Z,12.30
2018-05-25T21:33:08.102Z,13.15
2018-05-25T21:35:35.556Z,15.65
2018-05-25T21:38:03.020Z,15.80
2018-05-25T21:40:30.472Z,14.70
2018-05-25T21:42:57.958Z,14.90
2018-05-25T21:45:26.381Z,15.10
2018-05-25T21:47:53.848Z,14.65
2018-05-25T21:50:21.301Z,15.73
2018-05-25T21:52:48.762Z,15.55
2018-05-25T21:55:16.230Z,15.15
2018-05-25T21:57:43.693Z,14.40
2018-05-25T22:00:11.166Z,13.62
2018-05-25T22:02:38.635Z,15.85
2018-05-25T22:05:06.089Z,20.30
2018-05-25T22:07:33.559Z,24.27
2018-05-25T22:10:01.804Z,19.75
2018-05-25T22:12:29.266Z,13.80
2018-05-25T22:14:56.774Z,19.55
2018-05-25T22:17:25.010Z,16.60
2018-05-25T22:19:52.503Z,16.80
2018-05-25T22:22:19.962Z,21.57
2018-05-25T22:24:47.418Z,16.73
2018-05-25T22:27:14.864Z,19.70
2018-05-25T22:29:42.332Z,18.90
2018-05-25T22:32:09.811Z,16.20
2018-05-25T22:34:37.257Z,16.02
2018-05-25T22:37:05.522Z,16.08
2018-05-25T22:39:32.972Z,15.27
2018-05-25T22:41:59.945Z,16.42
2018-05-25T22:44:39.302Z,15.15
2018-05-25T22:47:18.721Z,14.60
2018-05-25T22:49:58.150Z,15.00
2018-05-25T22:52:30.767Z,16.10
2018-05-25T22:54:58.246Z,15.80
2018-05-25T22:57:25.733Z,15.50
2018-05-25T22:59:53.204Z,15.05
2018-05-25T23:02:20.656Z,14.52
2018-05-25T23:04:48.117Z,14.40
2018-05-25T23:07:15.570Z,14.60
2018-05-25T23:09:43.027Z,15.40
2018-05-25T23:12:10.497Z,15.90
2018-05-25T23:14:37.963Z,14.40
2018-05-25T23:17:05.416Z,15.00
2018-05-25T23:19:32.904Z,14.70
2018-05-25T23:22:00.364Z,14.23
2018-05-25T23:24:27.828Z,14.87
2018-05-25T23:26:56.458Z,15.00
2018-05-25T23:29:23.928Z,15.57
2018-05-25T23:31:51.394Z,15.02
2018-05-25T23:34:18.862Z,15.93
2018-05-25T23:36:46.328Z,15.93
2018-05-25T23:39:13.783Z,17.40
2018-05-25T23:41:42.023Z,16.73
2018-05-25T23:44:09.489Z,16.23
2018-05-25T23:46:37.012Z,16.70
2018-05-25T23:49:04.491Z,17.00
2018-05-25T23:51:31.954Z,17.70
2018-05-25T23:53:59.419Z,16.92
2018-05-25T23:56:26.864Z,17.65
2018-05-25T23:58:55.082Z,18.30
